You are listening to:
KDED CTAF/Misc - DeLand, Florida, United States

KDED 230935Z AUTO 00000KT 10SM CLR 10/08 A3015 RMK AO2 T01040083

If stream doesn't start automatically press the play button
If stream stops then reload player then press play